sensor_id;sensor_type;location;lat;lon;timestamp;pressure;altitude;pressure_sealevel;temperature;humidity
78839;BME280;68405;47.190;27.558;2024-02-28T00:00:16;100376.67;;;4.68;58.55
78839;BME280;68405;47.190;27.558;2024-02-28T00:03:06;100378.40;;;4.66;59.66
78839;BME280;68405;47.190;27.558;2024-02-28T00:05:35;100377.88;;;4.64;60.17
78839;BME280;68405;47.190;27.558;2024-02-28T00:08:04;100377.04;;;4.61;57.78
78839;BME280;68405;47.190;27.558;2024-02-28T00:10:33;100377.89;;;4.59;58.46
78839;BME280;68405;47.190;27.558;2024-02-28T00:13:02;100378.25;;;4.56;58.86
78839;BME280;68405;47.190;27.558;2024-02-28T00:15:31;100374.12;;;4.54;58.50
78839;BME280;68405;47.190;27.558;2024-02-28T00:18:01;100373.10;;;4.50;60.79
78839;BME280;68405;47.190;27.558;2024-02-28T00:20:31;100371.20;;;4.48;59.11
78839;BME280;68405;47.190;27.558;2024-02-28T00:22:58;100371.38;;;4.44;61.37
78839;BME280;68405;47.190;27.558;2024-02-28T00:25:27;100376.38;;;4.38;60.69
78839;BME280;68405;47.190;27.558;2024-02-28T00:27:56;100379.14;;;4.39;60.57
78839;BME280;68405;47.190;27.558;2024-02-28T00:30:25;100374.32;;;4.36;61.25
78839;BME280;68405;47.190;27.558;2024-02-28T00:32:56;100375.35;;;4.32;61.84
78839;BME280;68405;47.190;27.558;2024-02-28T00:35:25;100369.67;;;4.29;61.86
78839;BME280;68405;47.190;27.558;2024-02-28T00:37:54;100370.71;;;4.25;64.74
78839;BME280;68405;47.190;27.558;2024-02-28T00:40:23;100371.23;;;4.22;64.82
78839;BME280;68405;47.190;27.558;2024-02-28T00:42:53;100373.12;;;4.19;62.90
78839;BME280;68405;47.190;27.558;2024-02-28T00:45:23;100364.88;;;4.22;62.37
78839;BME280;68405;47.190;27.558;2024-02-28T00:47:51;100363.33;;;4.21;61.57
78839;BME280;68405;47.190;27.558;2024-02-28T00:50:22;100361.95;;;4.20;61.79
78839;BME280;68405;47.190;27.558;2024-02-28T00:52:51;100359.20;;;4.20;61.31
78839;BME280;68405;47.190;27.558;2024-02-28T00:55:21;100355.93;;;4.19;61.16
78839;BME280;68405;47.190;27.558;2024-02-28T00:57:50;100353.86;;;4.18;60.90
78839;BME280;68405;47.190;27.558;2024-02-28T01:00:19;100349.91;;;4.16;60.75
78839;BME280;68405;47.190;27.558;2024-02-28T01:02:48;100349.40;;;4.15;61.85
78839;BME280;68405;47.190;27.558;2024-02-28T01:05:17;100348.38;;;4.13;60.65
78839;BME280;68405;47.190;27.558;2024-02-28T01:07:46;100350.95;;;4.12;60.39
78839;BME280;68405;47.190;27.558;2024-02-28T01:10:16;100345.98;;;4.11;61.78
78839;BME280;68405;47.190;27.558;2024-02-28T01:12:45;100348.89;;;4.10;60.77
78839;BME280;68405;47.190;27.558;2024-02-28T01:15:14;100348.55;;;4.10;60.24
78839;BME280;68405;47.190;27.558;2024-02-28T01:17:43;100346.31;;;4.08;61.88
78839;BME280;68405;47.190;27.558;2024-02-28T01:20:12;100345.63;;;4.04;61.73
78839;BME280;68405;47.190;27.558;2024-02-28T01:22:41;100344.25;;;4.03;61.02
78839;BME280;68405;47.190;27.558;2024-02-28T01:25:11;100345.45;;;4.00;61.75
78839;BME280;68405;47.190;27.558;2024-02-28T01:27:40;100344.59;;;3.98;62.19
78839;BME280;68405;47.190;27.558;2024-02-28T01:30:08;100345.46;;;3.95;62.71
78839;BME280;68405;47.190;27.558;2024-02-28T01:32:37;100346.66;;;3.93;62.56
78839;BME280;68405;47.190;27.558;2024-02-28T01:35:09;100340.98;;;3.92;62.39
78839;BME280;68405;47.190;27.558;2024-02-28T01:37:38;100346.15;;;3.88;62.81
78839;BME280;68405;47.190;27.558;2024-02-28T01:40:10;100347.34;;;3.86;62.06
78839;BME280;68405;47.190;27.558;2024-02-28T01:42:39;100347.67;;;3.83;62.40
78839;BME280;68405;47.190;27.558;2024-02-28T01:45:07;100350.09;;;3.81;62.49
78839;BME280;68405;47.190;27.558;2024-02-28T01:47:38;100351.48;;;3.79;63.06
78839;BME280;68405;47.190;27.558;2024-02-28T01:50:08;100351.12;;;3.75;64.61
78839;BME280;68405;47.190;27.558;2024-02-28T01:52:38;100355.24;;;3.74;62.91
78839;BME280;68405;47.190;27.558;2024-02-28T01:55:09;100351.11;;;3.71;63.31
78839;BME280;68405;47.190;27.558;2024-02-28T01:57:38;100348.88;;;3.68;63.85
78839;BME280;68405;47.190;27.558;2024-02-28T02:00:09;100348.17;;;3.66;62.74
78839;BME280;68405;47.190;27.558;2024-02-28T02:02:39;100349.55;;;3.64;62.73
78839;BME280;68405;47.190;27.558;2024-02-28T02:05:10;100347.66;;;3.62;63.99
78839;BME280;68405;47.190;27.558;2024-02-28T02:07:40;100346.63;;;3.59;63.45
78839;BME280;68405;47.190;27.558;2024-02-28T02:10:10;100350.23;;;3.56;62.42
78839;BME280;68405;47.190;27.558;2024-02-28T02:12:40;100353.50;;;3.57;62.61
78839;BME280;68405;47.190;27.558;2024-02-28T02:15:09;100353.15;;;3.57;62.99
78839;BME280;68405;47.190;27.558;2024-02-28T02:17:38;100357.62;;;3.58;62.71
78839;BME280;68405;47.190;27.558;2024-02-28T02:20:11;100359.52;;;3.56;62.59
78839;BME280;68405;47.190;27.558;2024-02-28T02:22:41;100356.92;;;3.55;62.68
78839;BME280;68405;47.190;27.558;2024-02-28T02:25:10;100358.29;;;3.53;63.35
78839;BME280;68405;47.190;27.558;2024-02-28T02:27:39;100363.61;;;3.50;63.65
78839;BME280;68405;47.190;27.558;2024-02-28T02:30:10;100366.86;;;3.49;63.74
78839;BME280;68405;47.190;27.558;2024-02-28T02:32:39;100373.91;;;3.49;63.25
78839;BME280;68405;47.190;27.558;2024-02-28T02:35:09;100373.91;;;3.47;62.94
78839;BME280;68405;47.190;27.558;2024-02-28T02:37:38;100373.73;;;3.47;62.71
78839;BME280;68405;47.190;27.558;2024-02-28T02:40:08;100375.63;;;3.49;63.47
78839;BME280;68405;47.190;27.558;2024-02-28T02:42:38;100377.00;;;3.49;63.83
78839;BME280;68405;47.190;27.558;2024-02-28T02:45:08;100380.94;;;3.47;64.10
78839;BME280;68405;47.190;27.558;2024-02-28T02:47:37;100382.66;;;3.46;63.09
78839;BME280;68405;47.190;27.558;2024-02-28T02:50:07;100385.07;;;3.47;63.79
78839;BME280;68405;47.190;27.558;2024-02-28T02:52:36;100384.20;;;3.46;65.72
78839;BME280;68405;47.190;27.558;2024-02-28T02:55:07;100380.09;;;3.47;63.94
78839;BME280;68405;47.190;27.558;2024-02-28T02:57:36;100382.50;;;3.49;63.95
78839;BME280;68405;47.190;27.558;2024-02-28T03:00:09;100381.63;;;3.48;64.44
78839;BME280;68405;47.190;27.558;2024-02-28T03:02:39;100382.16;;;3.48;64.71
78839;BME280;68405;47.190;27.558;2024-02-28T03:05:09;100381.63;;;3.48;64.32
78839;BME280;68405;47.190;27.558;2024-02-28T03:07:38;100376.83;;;3.48;65.01
78839;BME280;68405;47.190;27.558;2024-02-28T03:10:08;100379.92;;;3.48;65.31
78839;BME280;68405;47.190;27.558;2024-02-28T03:12:38;100376.65;;;3.44;67.26
78839;BME280;68405;47.190;27.558;2024-02-28T03:15:08;100381.61;;;3.38;67.77
78839;BME280;68405;47.190;27.558;2024-02-28T03:17:36;100387.11;;;3.38;65.85
78839;BME280;68405;47.190;27.558;2024-02-28T03:20:07;100381.95;;;3.39;65.49
78839;BME280;68405;47.190;27.558;2024-02-28T03:22:36;100381.79;;;3.39;65.33
78839;BME280;68405;47.190;27.558;2024-02-28T03:25:05;100380.08;;;3.42;64.53
78839;BME280;68405;47.190;27.558;2024-02-28T03:27:34;100383.69;;;3.43;65.01
78839;BME280;68405;47.190;27.558;2024-02-28T03:30:04;100384.70;;;3.41;66.41
78839;BME280;68405;47.190;27.558;2024-02-28T03:32:33;100383.16;;;3.38;66.61
78839;BME280;68405;47.190;27.558;2024-02-28T03:35:02;100382.11;;;3.34;67.64
78839;BME280;68405;47.190;27.558;2024-02-28T03:37:32;100381.92;;;3.31;67.15
78839;BME280;68405;47.190;27.558;2024-02-28T03:40:01;100381.24;;;3.31;66.82
78839;BME280;68405;47.190;27.558;2024-02-28T03:42:30;100380.55;;;3.31;66.06
78839;BME280;68405;47.190;27.558;2024-02-28T03:44:59;100379.53;;;3.33;64.97
78839;BME280;68405;47.190;27.558;2024-02-28T03:47:28;100379.53;;;3.35;65.27
78839;BME280;68405;47.190;27.558;2024-02-28T03:49:56;100383.84;;;3.37;65.29
78839;BME280;68405;47.190;27.558;2024-02-28T03:52:25;100383.84;;;3.37;65.03
78839;BME280;68405;47.190;27.558;2024-02-28T03:54:54;100386.59;;;3.37;65.23
78839;BME280;68405;47.190;27.558;2024-02-28T03:57:23;100384.20;;;3.38;65.51
78839;BME280;68405;47.190;27.558;2024-02-28T03:59:52;100388.81;;;3.38;65.99
78839;BME280;68405;47.190;27.558;2024-02-28T04:02:21;100390.02;;;3.38;65.50
78839;BME280;68405;47.190;27.558;2024-02-28T04:04:50;100390.53;;;3.37;64.96
78839;BME280;68405;47.190;27.558;2024-02-28T04:07:19;100393.09;;;3.35;65.16
78839;BME280;68405;47.190;27.558;2024-02-28T04:09:47;100391.05;;;3.33;64.90
78839;BME280;68405;47.190;27.558;2024-02-28T04:12:17;100392.75;;;3.33;65.08
78839;BME280;68405;47.190;27.558;2024-02-28T04:14:45;100389.31;;;3.31;65.79
78839;BME280;68405;47.190;27.558;2024-02-28T04:17:14;100389.98;;;3.28;64.71
78839;BME280;68405;47.190;27.558;2024-02-28T04:19:43;100387.91;;;3.25;64.93
78839;BME280;68405;47.190;27.558;2024-02-28T04:22:12;100384.99;;;3.23;65.50
78839;BME280;68405;47.190;27.558;2024-02-28T04:24:41;100386.20;;;3.22;66.26
78839;BME280;68405;47.190;27.558;2024-02-28T04:27:10;100386.88;;;3.20;65.91
78839;BME280;68405;47.190;27.558;2024-02-28T04:29:40;100387.89;;;3.15;67.25
78839;BME280;68405;47.190;27.558;2024-02-28T04:32:09;100390.61;;;3.11;67.65
78839;BME280;68405;47.190;27.558;2024-02-28T04:34:38;100391.81;;;3.10;66.09
78839;BME280;68405;47.190;27.558;2024-02-28T04:37:07;100389.73;;;3.08;66.24
78839;BME280;68405;47.190;27.558;2024-02-28T04:39:35;100393.86;;;3.06;65.50
78839;BME280;68405;47.190;27.558;2024-02-28T04:42:03;100395.23;;;3.05;66.09
78839;BME280;68405;47.190;27.558;2024-02-28T04:44:32;100394.86;;;3.02;66.33
78839;BME280;68405;47.190;27.558;2024-02-28T04:47:01;100395.71;;;3.02;65.93
78839;BME280;68405;47.190;27.558;2024-02-28T04:49:31;100395.39;;;3.05;65.94
78839;BME280;68405;47.190;27.558;2024-02-28T04:52:00;100394.02;;;3.04;66.56
78839;BME280;68405;47.190;27.558;2024-02-28T04:54:29;100395.38;;;3.01;66.96
78839;BME280;68405;47.190;27.558;2024-02-28T04:56:57;100396.56;;;2.97;68.48
78839;BME280;68405;47.190;27.558;2024-02-28T04:59:26;100401.17;;;2.94;67.62
78839;BME280;68405;47.190;27.558;2024-02-28T05:01:55;100406.83;;;2.93;66.42
78839;BME280;68405;47.190;27.558;2024-02-28T05:04:24;100406.46;;;2.89;68.45
78839;BME280;68405;47.190;27.558;2024-02-28T05:06:53;100409.37;;;2.87;67.20
78839;BME280;68405;47.190;27.558;2024-02-28T05:09:22;100413.82;;;2.83;69.37
78839;BME280;68405;47.190;27.558;2024-02-28T05:11:52;100414.30;;;2.78;71.21
78839;BME280;68405;47.190;27.558;2024-02-28T05:14:21;100413.75;;;2.76;70.09
78839;BME280;68405;47.190;27.558;2024-02-28T05:16:51;100416.39;;;2.84;69.39
78839;BME280;68405;47.190;27.558;2024-02-28T05:19:37;100420.89;;;2.93;68.21
78839;BME280;68405;47.190;27.558;2024-02-28T05:22:43;100420.33;;;3.16;68.38
78839;BME280;68405;47.190;27.558;2024-02-28T05:25:13;100424.05;;;3.50;67.40
78839;BME280;68405;47.190;27.558;2024-02-28T05:27:43;100422.74;;;3.72;67.38
78839;BME280;68405;47.190;27.558;2024-02-28T05:30:13;100425.52;;;3.77;66.99
78839;BME280;68405;47.190;27.558;2024-02-28T05:32:45;100428.42;;;3.78;67.36
78839;BME280;68405;47.190;27.558;2024-02-28T05:35:15;100431.91;;;4.26;67.12
78839;BME280;68405;47.190;27.558;2024-02-28T05:37:47;100432.16;;;5.02;66.27
78839;BME280;68405;47.190;27.558;2024-02-28T05:40:17;100436.83;;;5.78;65.79
78839;BME280;68405;47.190;27.558;2024-02-28T05:42:46;100436.94;;;7.09;64.38
78839;BME280;68405;47.190;27.558;2024-02-28T05:45:16;100436.97;;;8.84;63.54
78839;BME280;68405;47.190;27.558;2024-02-28T05:47:45;100434.14;;;10.63;61.18
78839;BME280;68405;47.190;27.558;2024-02-28T05:50:14;100432.84;;;12.13;60.60
78839;BME280;68405;47.190;27.558;2024-02-28T05:52:45;100437.59;;;13.00;58.33
78839;BME280;68405;47.190;27.558;2024-02-28T05:55:14;100437.27;;;14.16;56.01
78839;BME280;68405;47.190;27.558;2024-02-28T05:57:44;100434.62;;;15.44;52.40
78839;BME280;68405;47.190;27.558;2024-02-28T06:00:14;100435.30;;;16.45;50.22
78839;BME280;68405;47.190;27.558;2024-02-28T06:02:43;100433.76;;;17.59;50.08
78839;BME280;68405;47.190;27.558;2024-02-28T06:05:13;100439.25;;;18.79;47.66
78839;BME280;68405;47.190;27.558;2024-02-28T06:07:42;100442.56;;;19.69;45.23
78839;BME280;68405;47.190;27.558;2024-02-28T06:10:11;100447.66;;;20.46;45.76
78839;BME280;68405;47.190;27.558;2024-02-28T06:12:42;100453.05;;;21.38;44.82
78839;BME280;68405;47.190;27.558;2024-02-28T06:15:12;100452.23;;;22.40;42.43
78839;BME280;68405;47.190;27.558;2024-02-28T06:17:41;100452.92;;;23.04;39.13
78839;BME280;68405;47.190;27.558;2024-02-28T06:20:11;100450.81;;;23.74;36.63
78839;BME280;68405;47.190;27.558;2024-02-28T06:22:41;100454.71;;;24.24;35.79
78839;BME280;68405;47.190;27.558;2024-02-28T06:25:10;100457.17;;;24.93;32.77
78839;BME280;68405;47.190;27.558;2024-02-28T06:27:46;100464.02;;;25.52;33.72
78839;BME280;68405;47.190;27.558;2024-02-28T06:30:17;100462.33;;;26.34;31.67
78839;BME280;68405;47.190;27.558;2024-02-28T06:32:47;100465.95;;;26.77;30.48
78839;BME280;68405;47.190;27.558;2024-02-28T06:35:17;100470.27;;;27.05;30.71
78839;BME280;68405;47.190;27.558;2024-02-28T06:37:46;100470.55;;;27.43;29.64
78839;BME280;68405;47.190;27.558;2024-02-28T06:40:18;100474.71;;;28.07;28.01
78839;BME280;68405;47.190;27.558;2024-02-28T06:42:48;100472.07;;;28.21;26.68
78839;BME280;68405;47.190;27.558;2024-02-28T06:45:17;100476.55;;;28.50;25.27
78839;BME280;68405;47.190;27.558;2024-02-28T06:47:47;100474.88;;;28.76;24.33
78839;BME280;68405;47.190;27.558;2024-02-28T06:50:19;100473.53;;;28.96;24.28
78839;BME280;68405;47.190;27.558;2024-02-28T06:52:48;100475.77;;;29.42;21.68
78839;BME280;68405;47.190;27.558;2024-02-28T06:55:17;100475.43;;;29.12;21.61
78839;BME280;68405;47.190;27.558;2024-02-28T06:57:46;100475.52;;;28.99;21.37
78839;BME280;68405;47.190;27.558;2024-02-28T07:00:16;100477.11;;;29.38;21.50
78839;BME280;68405;47.190;27.558;2024-02-28T07:02:46;100482.86;;;29.96;20.96
78839;BME280;68405;47.190;27.558;2024-02-28T07:05:15;100485.39;;;30.42;20.42
78839;BME280;68405;47.190;27.558;2024-02-28T07:07:44;100483.99;;;30.52;20.35
78839;BME280;68405;47.190;27.558;2024-02-28T07:10:14;100476.58;;;30.59;19.83
78839;BME280;68405;47.190;27.558;2024-02-28T07:12:43;100474.61;;;30.83;20.42
78839;BME280;68405;47.190;27.558;2024-02-28T07:15:12;100475.77;;;31.23;19.44
78839;BME280;68405;47.190;27.558;2024-02-28T07:17:41;100479.52;;;30.84;18.21
78839;BME280;68405;47.190;27.558;2024-02-28T07:20:11;100481.48;;;30.23;17.87
78839;BME280;68405;47.190;27.558;2024-02-28T07:22:41;100485.69;;;30.41;18.48
78839;BME280;68405;47.190;27.558;2024-02-28T07:25:11;100493.46;;;30.65;17.35
78839;BME280;68405;47.190;27.558;2024-02-28T07:27:40;100491.55;;;30.58;17.77
78839;BME280;68405;47.190;27.558;2024-02-28T07:30:10;100491.71;;;30.63;17.85
78839;BME280;68405;47.190;27.558;2024-02-28T07:32:39;100499.32;;;31.11;16.97
78839;BME280;68405;47.190;27.558;2024-02-28T07:35:09;100499.65;;;31.53;17.32
78839;BME280;68405;47.190;27.558;2024-02-28T07:37:38;100500.92;;;31.88;16.44
78839;BME280;68405;47.190;27.558;2024-02-28T07:40:08;100498.08;;;31.34;16.32
78839;BME280;68405;47.190;27.558;2024-02-28T07:42:37;100494.08;;;31.80;16.67
78839;BME280;68405;47.190;27.558;2024-02-28T07:45:07;100496.84;;;32.02;16.33
78839;BME280;68405;47.190;27.558;2024-02-28T07:47:36;100498.91;;;32.89;15.44
78839;BME280;68405;47.190;27.558;2024-02-28T07:50:09;100500.14;;;33.25;15.52
78839;BME280;68405;47.190;27.558;2024-02-28T07:52:38;100502.23;;;33.16;14.52
78839;BME280;68405;47.190;27.558;2024-02-28T07:55:08;100499.02;;;33.89;15.35
78839;BME280;68405;47.190;27.558;2024-02-28T07:57:37;100508.65;;;34.23;14.92
78839;BME280;68405;47.190;27.558;2024-02-28T08:00:10;100505.75;;;33.24;14.16
78839;BME280;68405;47.190;27.558;2024-02-28T08:02:44;100506.95;;;32.45;14.80
78839;BME280;68405;47.190;27.558;2024-02-28T08:05:14;100505.44;;;32.41;14.71
78839;BME280;68405;47.190;27.558;2024-02-28T08:07:43;100504.91;;;31.27;15.03
78839;BME280;68405;47.190;27.558;2024-02-28T08:10:12;100510.98;;;31.18;15.03
78839;BME280;68405;47.190;27.558;2024-02-28T08:12:42;100506.25;;;31.59;15.14
78839;BME280;68405;47.190;27.558;2024-02-28T08:15:11;100507.59;;;31.86;15.01
78839;BME280;68405;47.190;27.558;2024-02-28T08:17:40;100510.89;;;31.92;14.97
78839;BME280;68405;47.190;27.558;2024-02-28T08:20:10;100510.77;;;31.88;14.65
78839;BME280;68405;47.190;27.558;2024-02-28T08:22:38;100507.29;;;31.48;15.00
78839;BME280;68405;47.190;27.558;2024-02-28T08:25:08;100506.10;;;31.39;15.36
78839;BME280;68405;47.190;27.558;2024-02-28T08:27:39;100506.63;;;32.49;14.92
78839;BME280;68405;47.190;27.558;2024-02-28T08:30:10;100507.09;;;32.62;14.30
78839;BME280;68405;47.190;27.558;2024-02-28T08:32:40;100506.66;;;32.81;14.19
78839;BME280;68405;47.190;27.558;2024-02-28T08:35:10;100502.05;;;32.07;14.13
78839;BME280;68405;47.190;27.558;2024-02-28T08:37:40;100494.37;;;30.93;15.01
78839;BME280;68405;47.190;27.558;2024-02-28T08:40:10;100494.64;;;31.20;15.28
78839;BME280;68405;47.190;27.558;2024-02-28T08:42:40;100499.87;;;30.91;15.00
78839;BME280;68405;47.190;27.558;2024-02-28T08:45:10;100495.18;;;30.95;14.94
78839;BME280;68405;47.190;27.558;2024-02-28T08:47:40;100498.75;;;30.97;15.11
78839;BME280;68405;47.190;27.558;2024-02-28T08:50:10;100497.23;;;30.10;15.61
78839;BME280;68405;47.190;27.558;2024-02-28T08:52:39;100499.27;;;30.79;15.46
78839;BME280;68405;47.190;27.558;2024-02-28T08:55:08;100490.94;;;30.32;15.80
78839;BME280;68405;47.190;27.558;2024-02-28T08:57:37;100483.96;;;30.65;15.65
78839;BME280;68405;47.190;27.558;2024-02-28T09:00:08;100477.31;;;31.71;15.14
78839;BME280;68405;47.190;27.558;2024-02-28T09:02:37;100474.67;;;32.71;14.90
78839;BME280;68405;47.190;27.558;2024-02-28T09:05:07;100475.27;;;33.68;13.93
78839;BME280;68405;47.190;27.558;2024-02-28T09:07:37;100483.52;;;33.65;13.53
78839;BME280;68405;47.190;27.558;2024-02-28T09:10:08;100477.27;;;32.92;14.00
78839;BME280;68405;47.190;27.558;2024-02-28T09:12:37;100482.83;;;31.70;14.23
78839;BME280;68405;47.190;27.558;2024-02-28T09:15:07;100481.27;;;31.15;14.53
78839;BME280;68405;47.190;27.558;2024-02-28T09:17:36;100485.20;;;31.84;14.66
78839;BME280;68405;47.190;27.558;2024-02-28T09:20:06;100486.80;;;32.26;14.50
78839;BME280;68405;47.190;27.558;2024-02-28T09:22:36;100493.05;;;32.71;13.60
78839;BME280;68405;47.190;27.558;2024-02-28T09:25:06;100489.29;;;31.81;14.03
78839;BME280;68405;47.190;27.558;2024-02-28T09:27:37;100488.36;;;32.16;14.10
78839;BME280;68405;47.190;27.558;2024-02-28T09:30:08;100483.05;;;32.27;13.82
78839;BME280;68405;47.190;27.558;2024-02-28T09:32:37;100487.51;;;31.75;14.05
78839;BME280;68405;47.190;27.558;2024-02-28T09:35:07;100487.96;;;31.72;14.17
78839;BME280;68405;47.190;27.558;2024-02-28T09:37:37;100483.22;;;31.06;14.47
78839;BME280;68405;47.190;27.558;2024-02-28T09:40:10;100488.99;;;30.43;14.92
78839;BME280;68405;47.190;27.558;2024-02-28T09:42:38;100488.33;;;30.71;14.74
78839;BME280;68405;47.190;27.558;2024-02-28T09:45:09;100485.36;;;30.55;14.89
78839;BME280;68405;47.190;27.558;2024-02-28T09:47:40;100490.19;;;30.32;14.91
78839;BME280;68405;47.190;27.558;2024-02-28T09:50:09;100479.05;;;29.72;15.40
78839;BME280;68405;47.190;27.558;2024-02-28T09:52:40;100477.35;;;29.64;15.62
78839;BME280;68405;47.190;27.558;2024-02-28T09:55:09;100480.29;;;30.01;15.26
78839;BME280;68405;47.190;27.558;2024-02-28T09:57:38;100476.03;;;30.16;15.33
78839;BME280;68405;47.190;27.558;2024-02-28T10:00:09;100478.92;;;30.17;15.19
78839;BME280;68405;47.190;27.558;2024-02-28T10:02:39;100477.73;;;29.62;15.24
78839;BME280;68405;47.190;27.558;2024-02-28T10:05:11;100473.40;;;29.78;15.53
78839;BME280;68405;47.190;27.558;2024-02-28T10:07:40;100478.32;;;30.11;15.39
78839;BME280;68405;47.190;27.558;2024-02-28T10:10:09;100481.92;;;30.32;15.32
78839;BME280;68405;47.190;27.558;2024-02-28T10:12:42;100477.13;;;29.82;15.41
78839;BME280;68405;47.190;27.558;2024-02-28T10:15:11;100475.55;;;29.78;15.82
78839;BME280;68405;47.190;27.558;2024-02-28T10:17:40;100468.73;;;30.00;15.62
78839;BME280;68405;47.190;27.558;2024-02-28T10:20:11;100466.63;;;29.80;16.05
78839;BME280;68405;47.190;27.558;2024-02-28T10:22:40;100460.95;;;29.82;15.86
78839;BME280;68405;47.190;27.558;2024-02-28T10:25:10;100462.70;;;30.00;15.91
78839;BME280;68405;47.190;27.558;2024-02-28T10:27:38;100462.13;;;29.68;16.06
78839;BME280;68405;47.190;27.558;2024-02-28T10:30:10;100456.13;;;29.84;15.78
78839;BME280;68405;47.190;27.558;2024-02-28T10:32:49;100443.94;;;29.24;16.33
78839;BME280;68405;47.190;27.558;2024-02-28T10:35:19;100444.47;;;29.47;16.18
78839;BME280;68405;47.190;27.558;2024-02-28T10:37:51;100439.01;;;29.38;16.21
78839;BME280;68405;47.190;27.558;2024-02-28T10:40:21;100431.08;;;28.59;16.80
78839;BME280;68405;47.190;27.558;2024-02-28T10:42:50;100432.19;;;27.65;17.62
78839;BME280;68405;47.190;27.558;2024-02-28T10:45:20;100427.38;;;28.07;17.17
78839;BME280;68405;47.190;27.558;2024-02-28T10:47:54;100436.43;;;27.66;17.80
78839;BME280;68405;47.190;27.558;2024-02-28T10:50:23;100427.23;;;26.96;18.30
78839;BME280;68405;47.190;27.558;2024-02-28T10:52:53;100429.58;;;26.98;18.47
78839;BME280;68405;47.190;27.558;2024-02-28T10:55:23;100432.23;;;26.94;18.77
78839;BME280;68405;47.190;27.558;2024-02-28T10:58:01;100433.46;;;26.77;18.94
78839;BME280;68405;47.190;27.558;2024-02-28T11:00:31;100435.02;;;26.81;18.53
78839;BME280;68405;47.190;27.558;2024-02-28T11:03:01;100432.59;;;26.79;18.85
78839;BME280;68405;47.190;27.558;2024-02-28T11:05:38;100423.88;;;26.96;18.84
78839;BME280;68405;47.190;27.558;2024-02-28T11:08:09;100425.75;;;26.99;18.99
78839;BME280;68405;47.190;27.558;2024-02-28T11:10:42;100423.48;;;26.96;18.82
78839;BME280;68405;47.190;27.558;2024-02-28T11:13:22;100420.52;;;26.84;18.91
78839;BME280;68405;47.190;27.558;2024-02-28T11:15:51;100420.80;;;26.64;19.30
78839;BME280;68405;47.190;27.558;2024-02-28T11:18:21;100425.13;;;26.77;19.21
78839;BME280;68405;47.190;27.558;2024-02-28T11:20:50;100417.81;;;26.19;19.60
78839;BME280;68405;47.190;27.558;2024-02-28T11:23:19;100416.19;;;25.91;19.81
78839;BME280;68405;47.190;27.558;2024-02-28T11:25:48;100421.57;;;25.83;20.08
78839;BME280;68405;47.190;27.558;2024-02-28T11:28:17;100426.20;;;25.38;20.56
78839;BME280;68405;47.190;27.558;2024-02-28T11:30:50;100425.70;;;25.34;20.46
78839;BME280;68405;47.190;27.558;2024-02-28T11:33:19;100427.14;;;25.46;20.40
78839;BME280;68405;47.190;27.558;2024-02-28T11:35:56;100416.20;;;25.02;20.88
78839;BME280;68405;47.190;27.558;2024-02-28T11:38:26;100414.85;;;25.16;20.84
78839;BME280;68405;47.190;27.558;2024-02-28T11:40:55;100413.45;;;24.99;21.20
78839;BME280;68405;47.190;27.558;2024-02-28T11:43:24;100417.77;;;24.42;21.71
78839;BME280;68405;47.190;27.558;2024-02-28T11:45:54;100420.79;;;24.40;21.51
78839;BME280;68405;47.190;27.558;2024-02-28T11:48:24;100415.05;;;24.06;21.91
78839;BME280;68405;47.190;27.558;2024-02-28T11:50:53;100416.06;;;24.15;21.85
78839;BME280;68405;47.190;27.558;2024-02-28T11:53:22;100415.95;;;23.88;21.77
78839;BME280;68405;47.190;27.558;2024-02-28T11:55:54;100420.34;;;23.38;22.44
78839;BME280;68405;47.190;27.558;2024-02-28T11:58:24;100428.55;;;23.17;22.43
78839;BME280;68405;47.190;27.558;2024-02-28T12:00:54;100425.09;;;22.44;23.09
78839;BME280;68405;47.190;27.558;2024-02-28T12:03:24;100423.30;;;22.10;23.59
78839;BME280;68405;47.190;27.558;2024-02-28T12:05:54;100429.72;;;21.88;24.08
78839;BME280;68405;47.190;27.558;2024-02-28T12:08:23;100425.48;;;21.03;24.99
78839;BME280;68405;47.190;27.558;2024-02-28T12:10:54;100425.00;;;20.82;25.30
78839;BME280;68405;47.190;27.558;2024-02-28T12:13:23;100427.83;;;20.26;25.95
78839;BME280;68405;47.190;27.558;2024-02-28T12:15:52;100422.64;;;19.72;26.42
78839;BME280;68405;47.190;27.558;2024-02-28T12:18:21;100417.73;;;19.44;26.64
78839;BME280;68405;47.190;27.558;2024-02-28T12:20:50;100414.50;;;19.33;27.29
78839;BME280;68405;47.190;27.558;2024-02-28T12:23:19;100417.38;;;18.92;28.06
78839;BME280;68405;47.190;27.558;2024-02-28T12:25:48;100415.19;;;18.49;28.82
78839;BME280;68405;47.190;27.558;2024-02-28T12:28:17;100416.30;;;18.05;29.64
78839;BME280;68405;47.190;27.558;2024-02-28T12:30:46;100418.05;;;17.73;29.65
78839;BME280;68405;47.190;27.558;2024-02-28T12:33:15;100416.15;;;17.57;29.74
78839;BME280;68405;47.190;27.558;2024-02-28T12:35:44;100419.10;;;17.54;29.79
78839;BME280;68405;47.190;27.558;2024-02-28T12:38:13;100411.24;;;17.47;30.29
78839;BME280;68405;47.190;27.558;2024-02-28T12:40:42;100410.11;;;17.42;30.80
78839;BME280;68405;47.190;27.558;2024-02-28T12:43:11;100408.00;;;17.29;31.16
78839;BME280;68405;47.190;27.558;2024-02-28T12:45:42;100404.58;;;17.11;31.29
78839;BME280;68405;47.190;27.558;2024-02-28T12:48:11;100406.16;;;16.90;31.59
78839;BME280;68405;47.190;27.558;2024-02-28T12:50:40;100402.62;;;16.73;31.76
78839;BME280;68405;47.190;27.558;2024-02-28T12:53:09;100404.75;;;16.56;32.15
78839;BME280;68405;47.190;27.558;2024-02-28T12:55:38;100402.77;;;16.29;32.55
78839;BME280;68405;47.190;27.558;2024-02-28T12:58:07;100404.32;;;16.08;32.76